sensor_id;sensor_type;location;lat;lon;timestamp;pressure;altitude;pressure_sealevel;temperature;humidity
37792;BME280;29527;55.766;37.570;2022-12-15T00:00:35;100049.78;;;-2.99;66.70
37792;BME280;29527;55.766;37.570;2022-12-15T00:03:18;100053.91;;;-2.87;66.25
37792;BME280;29527;55.766;37.570;2022-12-15T00:06:02;100054.81;;;-2.88;65.85
37792;BME280;29527;55.766;37.570;2022-12-15T00:08:46;100051.06;;;-2.78;66.21
37792;BME280;29527;55.766;37.570;2022-12-15T00:11:30;100058.69;;;-2.67;65.59
37792;BME280;29527;55.766;37.570;2022-12-15T00:14:14;100067.28;;;-2.60;65.73
37792;BME280;29527;55.766;37.570;2022-12-15T00:16:58;100065.41;;;-2.55;65.76
37792;BME280;29527;55.766;37.570;2022-12-15T00:19:41;100073.97;;;-2.47;65.50
37792;BME280;29527;55.766;37.570;2022-12-15T00:22:25;100076.50;;;-2.43;65.45
37792;BME280;29527;55.766;37.570;2022-12-15T00:25:09;100073.00;;;-2.42;65.27
37792;BME280;29527;55.766;37.570;2022-12-15T00:27:55;100082.47;;;-2.35;65.07
37792;BME280;29527;55.766;37.570;2022-12-15T00:30:40;100076.28;;;-2.33;64.73
37792;BME280;29527;55.766;37.570;2022-12-15T00:33:23;100065.09;;;-2.41;65.33
37792;BME280;29527;55.766;37.570;2022-12-15T00:36:07;100078.03;;;-2.33;65.06
37792;BME280;29527;55.766;37.570;2022-12-15T00:38:51;100071.81;;;-2.27;64.98
37792;BME280;29527;55.766;37.570;2022-12-15T00:41:17;100084.84;;;-2.24;64.69
37792;BME280;29527;55.766;37.570;2022-12-15T00:43:43;100064.84;;;-2.28;64.87
37792;BME280;29527;55.766;37.570;2022-12-15T00:46:09;100084.78;;;-2.23;65.19
37792;BME280;29527;55.766;37.570;2022-12-15T00:48:54;100079.53;;;-2.23;64.95
37792;BME280;29527;55.766;37.570;2022-12-15T00:51:19;100092.66;;;-2.23;65.56
37792;BME280;29527;55.766;37.570;2022-12-15T00:53:45;100092.66;;;-2.23;65.34
37792;BME280;29527;55.766;37.570;2022-12-15T00:56:30;100087.28;;;-2.17;65.18
37792;BME280;29527;55.766;37.570;2022-12-15T00:59:15;100089.84;;;-2.15;65.31
37792;BME280;29527;55.766;37.570;2022-12-15T01:02:00;100089.75;;;-2.10;64.94
37792;BME280;29527;55.766;37.570;2022-12-15T01:04:44;100071.66;;;-2.21;64.83
37792;BME280;29527;55.766;37.570;2022-12-15T01:07:28;100097.50;;;-2.06;65.11
37792;BME280;29527;55.766;37.570;2022-12-15T01:10:12;100093.28;;;-2.11;64.63
37792;BME280;29527;55.766;37.570;2022-12-15T01:12:57;100100.16;;;-2.07;64.86
37792;BME280;29527;55.766;37.570;2022-12-15T01:15:41;100104.50;;;-2.05;65.24
37792;BME280;29527;55.766;37.570;2022-12-15T01:18:25;100105.38;;;-2.06;65.30
37792;BME280;29527;55.766;37.570;2022-12-15T01:21:10;100101.75;;;-2.00;64.92
37792;BME280;29527;55.766;37.570;2022-12-15T01:23:37;100119.19;;;-1.99;65.16
37792;BME280;29527;55.766;37.570;2022-12-15T01:26:03;100114.03;;;-2.02;64.88
37792;BME280;29527;55.766;37.570;2022-12-15T01:28:29;100113.19;;;-2.03;64.76
37792;BME280;29527;55.766;37.570;2022-12-15T01:30:54;100117.72;;;-2.09;64.66
37792;BME280;29527;55.766;37.570;2022-12-15T01:33:20;100085.09;;;-2.35;64.83
37792;BME280;29527;55.766;37.570;2022-12-15T01:35:57;100113.56;;;-2.20;64.85
37792;BME280;29527;55.766;37.570;2022-12-15T01:38:23;100110.50;;;-2.39;65.27
37792;BME280;29527;55.766;37.570;2022-12-15T01:40:54;100119.41;;;-2.46;65.01
37792;BME280;29527;55.766;37.570;2022-12-15T01:43:25;100113.66;;;-2.64;65.83
37792;BME280;29527;55.766;37.570;2022-12-15T01:48:46;100129.00;;;-2.88;66.93
37792;BME280;29527;55.766;37.570;2022-12-15T01:51:31;100136.19;;;-2.97;66.48
37792;BME280;29527;55.766;37.570;2022-12-15T01:54:09;100139.06;;;-3.10;67.53
37792;BME280;29527;55.766;37.570;2022-12-15T01:56:45;100150.72;;;-3.26;67.12
37792;BME280;29527;55.766;37.570;2022-12-15T01:59:15;100133.53;;;-3.43;67.60
37792;BME280;29527;55.766;37.570;2022-12-15T02:01:43;100135.38;;;-3.48;67.65
37792;BME280;29527;55.766;37.570;2022-12-15T02:04:10;100100.13;;;-3.79;68.33
37792;BME280;29527;55.766;37.570;2022-12-15T02:06:36;100141.78;;;-3.65;68.29
37792;BME280;29527;55.766;37.570;2022-12-15T02:09:01;100141.00;;;-3.70;68.50
37792;BME280;29527;55.766;37.570;2022-12-15T02:14:56;100144.44;;;-3.66;68.57
37792;BME280;29527;55.766;37.570;2022-12-15T02:20:24;100149.81;;;-3.76;68.95
37792;BME280;29527;55.766;37.570;2022-12-15T02:29:17;100168.16;;;-3.79;69.18
37792;BME280;29527;55.766;37.570;2022-12-15T02:34:48;100180.47;;;-3.82;69.12
37792;BME280;29527;55.766;37.570;2022-12-15T02:37:35;100183.03;;;-3.81;68.94
37792;BME280;29527;55.766;37.570;2022-12-15T02:40:03;100181.28;;;-3.80;69.09
37792;BME280;29527;55.766;37.570;2022-12-15T02:42:31;100178.56;;;-3.72;69.18
37792;BME280;29527;55.766;37.570;2022-12-15T02:45:02;100175.72;;;-3.60;68.97
37792;BME280;29527;55.766;37.570;2022-12-15T02:47:33;100171.94;;;-3.42;68.69
37792;BME280;29527;55.766;37.570;2022-12-15T02:52:47;100177.59;;;-3.17;68.11
37792;BME280;29527;55.766;37.570;2022-12-15T02:55:39;100185.97;;;-2.97;67.74
37792;BME280;29527;55.766;37.570;2022-12-15T02:59:05;100137.28;;;-3.08;67.34
37792;BME280;29527;55.766;37.570;2022-12-15T03:01:34;100162.06;;;-2.80;66.97
37792;BME280;29527;55.766;37.570;2022-12-15T03:04:03;100181.88;;;-2.65;65.99
37792;BME280;29527;55.766;37.570;2022-12-15T03:06:30;100188.72;;;-2.58;66.13
37792;BME280;29527;55.766;37.570;2022-12-15T03:08:55;100186.84;;;-2.53;65.75
37792;BME280;29527;55.766;37.570;2022-12-15T03:11:21;100141.75;;;-2.70;65.67
37792;BME280;29527;55.766;37.570;2022-12-15T03:13:46;100177.06;;;-2.45;65.49
37792;BME280;29527;55.766;37.570;2022-12-15T03:16:12;100172.63;;;-2.42;65.65
37792;BME280;29527;55.766;37.570;2022-12-15T03:18:37;100176.06;;;-2.37;65.15
37792;BME280;29527;55.766;37.570;2022-12-15T03:21:03;100176.06;;;-2.37;64.30
37792;BME280;29527;55.766;37.570;2022-12-15T03:23:28;100146.78;;;-2.58;64.26
37792;BME280;29527;55.766;37.570;2022-12-15T03:25:54;100187.38;;;-2.35;64.58
37792;BME280;29527;55.766;37.570;2022-12-15T03:28:20;100183.84;;;-2.34;64.72
37792;BME280;29527;55.766;37.570;2022-12-15T03:30:45;100182.13;;;-2.35;64.60
37792;BME280;29527;55.766;37.570;2022-12-15T03:33:12;100191.66;;;-2.33;64.48
37792;BME280;29527;55.766;37.570;2022-12-15T03:35:37;100188.19;;;-2.33;64.61
37792;BME280;29527;55.766;37.570;2022-12-15T03:38:02;100189.03;;;-2.31;64.52
37792;BME280;29527;55.766;37.570;2022-12-15T03:40:28;100186.31;;;-2.26;64.48
37792;BME280;29527;55.766;37.570;2022-12-15T03:42:53;100194.22;;;-2.29;64.43
37792;BME280;29527;55.766;37.570;2022-12-15T03:45:21;100199.44;;;-2.26;64.20
37792;BME280;29527;55.766;37.570;2022-12-15T03:47:48;100202.81;;;-2.23;64.49
37792;BME280;29527;55.766;37.570;2022-12-15T03:50:19;100197.56;;;-2.23;64.19
37792;BME280;29527;55.766;37.570;2022-12-15T03:52:51;100199.38;;;-2.25;63.96
37792;BME280;29527;55.766;37.570;2022-12-15T03:55:18;100211.53;;;-2.21;64.15
37792;BME280;29527;55.766;37.570;2022-12-15T03:57:43;100202.81;;;-2.23;64.28
37792;BME280;29527;55.766;37.570;2022-12-15T04:00:10;100169.97;;;-2.39;63.98
37792;BME280;29527;55.766;37.570;2022-12-15T04:02:36;100207.97;;;-2.17;64.14
37792;BME280;29527;55.766;37.570;2022-12-15T04:05:01;100212.34;;;-2.19;64.34
37792;BME280;29527;55.766;37.570;2022-12-15T04:07:28;100206.19;;;-2.18;64.13
37792;BME280;29527;55.766;37.570;2022-12-15T04:09:54;100170.81;;;-2.37;63.71
37792;BME280;29527;55.766;37.570;2022-12-15T04:12:19;100213.13;;;-2.13;63.94
37792;BME280;29527;55.766;37.570;2022-12-15T04:14:45;100205.34;;;-2.17;64.43
37792;BME280;29527;55.766;37.570;2022-12-15T04:17:10;100227.84;;;-2.06;64.03
37792;BME280;29527;55.766;37.570;2022-12-15T04:19:37;100226.94;;;-2.05;63.88
37792;BME280;29527;55.766;37.570;2022-12-15T04:22:43;100218.09;;;-2.01;63.75
37792;BME280;29527;55.766;37.570;2022-12-15T04:25:16;100220.66;;;-1.98;64.16
37792;BME280;29527;55.766;37.570;2022-12-15T04:28:01;100218.84;;;-1.96;63.70
37792;BME280;29527;55.766;37.570;2022-12-15T04:30:50;100221.47;;;-1.96;63.12
37792;BME280;29527;55.766;37.570;2022-12-15T04:33:38;100231.88;;;-1.91;63.50
37792;BME280;29527;55.766;37.570;2022-12-15T04:36:24;100229.31;;;-1.94;63.04
37792;BME280;29527;55.766;37.570;2022-12-15T04:39:08;100221.53;;;-1.99;63.90
37792;BME280;29527;55.766;37.570;2022-12-15T04:41:54;100232.16;;;-2.04;63.57
37792;BME280;29527;55.766;37.570;2022-12-15T04:44:40;100235.72;;;-2.06;63.73
37792;BME280;29527;55.766;37.570;2022-12-15T04:47:24;100237.44;;;-2.05;63.96
37792;BME280;29527;55.766;37.570;2022-12-15T04:50:08;100244.41;;;-2.04;63.95
37792;BME280;29527;55.766;37.570;2022-12-15T04:52:52;100213.22;;;-2.18;63.51
37792;BME280;29527;55.766;37.570;2022-12-15T04:55:36;100243.56;;;-2.06;63.38
37792;BME280;29527;55.766;37.570;2022-12-15T04:58:21;100245.22;;;-2.02;63.83
37792;BME280;29527;55.766;37.570;2022-12-15T05:01:05;100252.34;;;-2.07;63.87
37792;BME280;29527;55.766;37.570;2022-12-15T05:03:49;100245.44;;;-2.11;63.94
37792;BME280;29527;55.766;37.570;2022-12-15T05:06:33;100264.78;;;-2.15;63.88
37792;BME280;29527;55.766;37.570;2022-12-15T05:09:17;100219.84;;;-2.42;64.17
37792;BME280;29527;55.766;37.570;2022-12-15T05:12:01;100261.25;;;-2.14;64.03
37792;BME280;29527;55.766;37.570;2022-12-15T05:14:44;100263.91;;;-2.16;63.42
37792;BME280;29527;55.766;37.570;2022-12-15T05:17:29;100268.25;;;-2.15;63.54
37792;BME280;29527;55.766;37.570;2022-12-15T05:20:13;100270.06;;;-2.19;63.83
37792;BME280;29527;55.766;37.570;2022-12-15T05:22:58;100269.16;;;-2.16;63.81
37792;BME280;29527;55.766;37.570;2022-12-15T05:25:42;100265.00;;;-2.28;63.60
37792;BME280;29527;55.766;37.570;2022-12-15T05:28:26;100274.66;;;-2.28;64.05
37792;BME280;29527;55.766;37.570;2022-12-15T05:31:10;100272.13;;;-2.33;64.30
37792;BME280;29527;55.766;37.570;2022-12-15T05:33:55;100274.81;;;-2.36;64.28
37792;BME280;29527;55.766;37.570;2022-12-15T05:36:21;100274.88;;;-2.39;64.23
37792;BME280;29527;55.766;37.570;2022-12-15T05:38:51;100268.75;;;-2.40;64.51
37792;BME280;29527;55.766;37.570;2022-12-15T05:41:18;100266.22;;;-2.45;64.52
37792;BME280;29527;55.766;37.570;2022-12-15T05:43:45;100273.19;;;-2.43;64.65
37792;BME280;29527;55.766;37.570;2022-12-15T05:46:11;100269.72;;;-2.44;64.43
37792;BME280;29527;55.766;37.570;2022-12-15T05:48:37;100289.81;;;-2.45;64.44
37792;BME280;29527;55.766;37.570;2022-12-15T05:51:07;100281.94;;;-2.43;64.03
37792;BME280;29527;55.766;37.570;2022-12-15T05:53:34;100281.09;;;-2.47;64.32
37792;BME280;29527;55.766;37.570;2022-12-15T05:56:05;100288.19;;;-2.50;64.54
37792;BME280;29527;55.766;37.570;2022-12-15T05:58:31;100277.94;;;-2.63;64.39
37792;BME280;29527;55.766;37.570;2022-12-15T06:01:08;100291.16;;;-2.69;65.09
37792;BME280;29527;55.766;37.570;2022-12-15T06:03:33;100290.59;;;-2.86;64.78
37792;BME280;29527;55.766;37.570;2022-12-15T06:05:59;100281.97;;;-2.93;64.60
37792;BME280;29527;55.766;37.570;2022-12-15T06:08:28;100288.97;;;-2.95;64.78
37792;BME280;29527;55.766;37.570;2022-12-15T06:10:55;100287.31;;;-2.99;64.85
37792;BME280;29527;55.766;37.570;2022-12-15T06:13:22;100276.94;;;-3.06;64.66
37792;BME280;29527;55.766;37.570;2022-12-15T06:15:59;100291.78;;;-3.05;65.01
37792;BME280;29527;55.766;37.570;2022-12-15T06:18:28;100295.22;;;-3.01;64.44
37792;BME280;29527;55.766;37.570;2022-12-15T06:21:06;100304.75;;;-2.98;64.87
37792;BME280;29527;55.766;37.570;2022-12-15T06:23:32;100299.56;;;-3.00;64.86
37792;BME280;29527;55.766;37.570;2022-12-15T06:25:59;100284.75;;;-3.01;64.57
37792;BME280;29527;55.766;37.570;2022-12-15T06:28:25;100287.31;;;-2.98;64.72
37792;BME280;29527;55.766;37.570;2022-12-15T06:30:54;100270.84;;;-3.06;64.47
37792;BME280;29527;55.766;37.570;2022-12-15T06:33:21;100310.53;;;-2.79;64.46
37792;BME280;29527;55.766;37.570;2022-12-15T06:35:47;100318.28;;;-2.71;63.79
37792;BME280;29527;55.766;37.570;2022-12-15T06:38:13;100336.31;;;-2.54;63.68
37792;BME280;29527;55.766;37.570;2022-12-15T06:40:39;100330.03;;;-2.46;63.22
37792;BME280;29527;55.766;37.570;2022-12-15T06:43:05;100330.03;;;-2.46;63.16
37792;BME280;29527;55.766;37.570;2022-12-15T06:45:32;100326.75;;;-2.57;63.17
37792;BME280;29527;55.766;37.570;2022-12-15T06:47:57;100332.91;;;-2.58;63.32
37792;BME280;29527;55.766;37.570;2022-12-15T06:50:23;100335.47;;;-2.55;63.60
37792;BME280;29527;55.766;37.570;2022-12-15T06:52:48;100350.28;;;-2.52;63.24
37792;BME280;29527;55.766;37.570;2022-12-15T06:55:13;100337.19;;;-2.54;63.07
37792;BME280;29527;55.766;37.570;2022-12-15T06:57:39;100351.91;;;-2.47;63.11
37792;BME280;29527;55.766;37.570;2022-12-15T07:00:05;100355.41;;;-2.46;63.64
37792;BME280;29527;55.766;37.570;2022-12-15T07:02:30;100355.34;;;-2.43;62.74
37792;BME280;29527;55.766;37.570;2022-12-15T07:04:57;100357.16;;;-2.47;63.27
37792;BME280;29527;55.766;37.570;2022-12-15T07:07:23;100352.97;;;-2.57;62.80
37792;BME280;29527;55.766;37.570;2022-12-15T07:09:49;100351.56;;;-2.75;62.91
37792;BME280;29527;55.766;37.570;2022-12-15T07:12:15;100363.78;;;-2.76;63.05
37792;BME280;29527;55.766;37.570;2022-12-15T07:14:40;100363.91;;;-2.83;62.95
37792;BME280;29527;55.766;37.570;2022-12-15T07:17:06;100362.28;;;-2.89;63.62
37792;BME280;29527;55.766;37.570;2022-12-15T07:19:31;100360.66;;;-2.98;63.86
37792;BME280;29527;55.766;37.570;2022-12-15T07:21:56;100363.34;;;-3.01;63.97
37792;BME280;29527;55.766;37.570;2022-12-15T07:24:23;100358.88;;;-2.97;63.27
37792;BME280;29527;55.766;37.570;2022-12-15T07:26:48;100331.31;;;-3.20;63.28
37792;BME280;29527;55.766;37.570;2022-12-15T07:29:14;100368.47;;;-2.96;63.38
37792;BME280;29527;55.766;37.570;2022-12-15T07:31:39;100373.66;;;-2.93;63.19
37792;BME280;29527;55.766;37.570;2022-12-15T07:34:05;100361.56;;;-3.02;63.01
37792;BME280;29527;55.766;37.570;2022-12-15T07:36:31;100341.72;;;-3.17;63.17
37792;BME280;29527;55.766;37.570;2022-12-15T07:38:58;100372.00;;;-2.97;63.41
37792;BME280;29527;55.766;37.570;2022-12-15T07:41:25;100355.53;;;-3.06;63.58
37792;BME280;29527;55.766;37.570;2022-12-15T07:43:50;100369.38;;;-2.97;63.69
37792;BME280;29527;55.766;37.570;2022-12-15T07:46:16;100368.41;;;-2.92;63.37
37792;BME280;29527;55.766;37.570;2022-12-15T07:48:42;100367.69;;;-3.00;62.68
37792;BME280;29527;55.766;37.570;2022-12-15T07:51:08;100358.88;;;-2.97;62.94
37792;BME280;29527;55.766;37.570;2022-12-15T07:53:34;100377.28;;;-3.00;63.32
37792;BME280;29527;55.766;37.570;2022-12-15T07:56:00;100374.66;;;-2.99;62.85
37792;BME280;29527;55.766;37.570;2022-12-15T07:58:26;100385.94;;;-2.95;63.15
37792;BME280;29527;55.766;37.570;2022-12-15T08:00:57;100388.59;;;-2.98;62.66
37792;BME280;29527;55.766;37.570;2022-12-15T08:03:23;100342.66;;;-3.21;62.50
37792;BME280;29527;55.766;37.570;2022-12-15T08:05:48;100388.72;;;-3.05;62.56
37792;BME280;29527;55.766;37.570;2022-12-15T08:08:14;100391.38;;;-3.08;63.25
37792;BME280;29527;55.766;37.570;2022-12-15T08:10:40;100386.31;;;-3.20;63.17
37792;BME280;29527;55.766;37.570;2022-12-15T08:13:06;100384.69;;;-3.29;63.56
37792;BME280;29527;55.766;37.570;2022-12-15T08:15:34;100338.72;;;-3.49;63.84
37792;BME280;29527;55.766;37.570;2022-12-15T08:18:00;100377.59;;;-3.22;63.77
37792;BME280;29527;55.766;37.570;2022-12-15T08:20:25;100375.63;;;-3.06;63.11
37792;BME280;29527;55.766;37.570;2022-12-15T08:22:51;100376.28;;;-2.93;63.25
37792;BME280;29527;55.766;37.570;2022-12-15T08:25:16;100376.16;;;-2.84;62.92
37792;BME280;29527;55.766;37.570;2022-12-15T08:27:41;100377.78;;;-2.78;62.55
37792;BME280;29527;55.766;37.570;2022-12-15T08:30:07;100365.56;;;-2.78;62.28
37792;BME280;29527;55.766;37.570;2022-12-15T08:32:33;100379.63;;;-2.82;62.82
37792;BME280;29527;55.766;37.570;2022-12-15T08:34:58;100377.78;;;-2.77;61.98
37792;BME280;29527;55.766;37.570;2022-12-15T08:37:24;100378.72;;;-2.81;62.11
37792;BME280;29527;55.766;37.570;2022-12-15T08:39:51;100385.66;;;-2.78;62.28
37792;BME280;29527;55.766;37.570;2022-12-15T08:42:16;100350.22;;;-3.01;61.95
37792;BME280;29527;55.766;37.570;2022-12-15T08:44:41;100393.63;;;-2.84;62.13
37792;BME280;29527;55.766;37.570;2022-12-15T08:47:07;100390.94;;;-2.81;61.93
37792;BME280;29527;55.766;37.570;2022-12-15T08:49:33;100382.53;;;-3.00;62.50
37792;BME280;29527;55.766;37.570;2022-12-15T08:51:58;100377.19;;;-2.94;62.46
37792;BME280;29527;55.766;37.570;2022-12-15T08:54:24;100387.59;;;-2.90;61.77
37792;BME280;29527;55.766;37.570;2022-12-15T08:56:50;100378.19;;;-3.01;62.02
37792;BME280;29527;55.766;37.570;2022-12-15T08:59:15;100395.63;;;-3.00;61.80
37792;BME280;29527;55.766;37.570;2022-12-15T09:01:41;100390.50;;;-3.07;61.91
37792;BME280;29527;55.766;37.570;2022-12-15T09:04:07;100391.34;;;-3.06;62.42
37792;BME280;29527;55.766;37.570;2022-12-15T09:06:34;100392.16;;;-3.03;62.20
37792;BME280;29527;55.766;37.570;2022-12-15T09:09:04;100396.50;;;-3.01;62.11
37792;BME280;29527;55.766;37.570;2022-12-15T09:11:30;100391.25;;;-3.00;62.04
37792;BME280;29527;55.766;37.570;2022-12-15T09:13:56;100392.00;;;-2.93;62.34
37792;BME280;29527;55.766;37.570;2022-12-15T09:16:22;100342.56;;;-3.15;62.47
37792;BME280;29527;55.766;37.570;2022-12-15T09:18:53;100375.34;;;-2.88;61.92
37792;BME280;29527;55.766;37.570;2022-12-15T09:21:19;100370.97;;;-2.87;62.23
37792;BME280;29527;55.766;37.570;2022-12-15T09:23:48;100358.72;;;-2.85;61.29
37792;BME280;29527;55.766;37.570;2022-12-15T09:26:16;100356.81;;;-2.77;61.44
37792;BME280;29527;55.766;37.570;2022-12-15T09:28:42;100364.59;;;-2.72;61.24
37792;BME280;29527;55.766;37.570;2022-12-15T09:31:16;100360.13;;;-2.67;60.81
37792;BME280;29527;55.766;37.570;2022-12-15T09:33:45;100357.66;;;-2.75;61.08
37792;BME280;29527;55.766;37.570;2022-12-15T09:36:11;100359.38;;;-2.74;60.91
37792;BME280;29527;55.766;37.570;2022-12-15T09:38:38;100359.31;;;-2.70;61.39
37792;BME280;29527;55.766;37.570;2022-12-15T09:49:44;100326.13;;;-2.70;61.49
37792;BME280;29527;55.766;37.570;2022-12-15T09:52:14;100325.34;;;-2.75;61.24
37792;BME280;29527;55.766;37.570;2022-12-15T09:54:41;100313.91;;;-2.71;60.96
37792;BME280;29527;55.766;37.570;2022-12-15T10:05:24;100296.16;;;-2.56;60.97
37792;BME280;29527;55.766;37.570;2022-12-15T10:07:53;100302.22;;;-2.53;61.09
37792;BME280;29527;55.766;37.570;2022-12-15T10:10:21;100291.59;;;-2.47;60.73
37792;BME280;29527;55.766;37.570;2022-12-15T10:12:50;100293.31;;;-2.46;60.76
37792;BME280;29527;55.766;37.570;2022-12-15T10:15:45;100281.84;;;-2.38;61.09
37792;BME280;29527;55.766;37.570;2022-12-15T10:18:21;100263.50;;;-2.40;60.63
37792;BME280;29527;55.766;37.570;2022-12-15T10:20:48;100274.13;;;-2.48;60.29
37792;BME280;29527;55.766;37.570;2022-12-15T10:23:17;100273.25;;;-2.47;60.21
37792;BME280;29527;55.766;37.570;2022-12-15T10:25:48;100251.78;;;-2.67;60.11
37792;BME280;29527;55.766;37.570;2022-12-15T10:28:28;100258.75;;;-2.66;60.59
37792;BME280;29527;55.766;37.570;2022-12-15T10:31:01;100230.31;;;-2.85;60.52
37792;BME280;29527;55.766;37.570;2022-12-15T10:33:36;100270.75;;;-2.53;60.33
37792;BME280;29527;55.766;37.570;2022-12-15T10:36:13;100278.75;;;-2.59;60.70
37792;BME280;29527;55.766;37.570;2022-12-15T10:38:40;100277.16;;;-2.69;61.03
37792;BME280;29527;55.766;37.570;2022-12-15T10:41:16;100249.56;;;-2.88;60.53
37792;BME280;29527;55.766;37.570;2022-12-15T10:43:45;100289.31;;;-2.64;60.68
37792;BME280;29527;55.766;37.570;2022-12-15T10:46:26;100286.59;;;-2.59;61.03
37792;BME280;29527;55.766;37.570;2022-12-15T10:48:59;100292.63;;;-2.55;60.85
37792;BME280;29527;55.766;37.570;2022-12-15T10:51:56;100288.97;;;-2.47;60.37
37792;BME280;29527;55.766;37.570;2022-12-15T10:54:26;100286.63;;;-2.61;60.55
37792;BME280;29527;55.766;37.570;2022-12-15T10:57:01;100278.81;;;-2.62;60.82
37792;BME280;29527;55.766;37.570;2022-12-15T10:59:35;100286.72;;;-2.65;61.67
37792;BME280;29527;55.766;37.570;2022-12-15T11:07:40;100295.31;;;-2.57;61.13
37792;BME280;29527;55.766;37.570;2022-12-15T11:10:28;100307.19;;;-2.37;61.21
37792;BME280;29527;55.766;37.570;2022-12-15T11:13:17;100306.63;;;-2.55;60.96
37792;BME280;29527;55.766;37.570;2022-12-15T11:15:54;100313.53;;;-2.49;61.04
37792;BME280;29527;55.766;37.570;2022-12-15T11:20:52;100319.72;;;-2.55;61.51
37792;BME280;29527;55.766;37.570;2022-12-15T11:23:25;100315.31;;;-2.53;60.69
37792;BME280;29527;55.766;37.570;2022-12-15T11:25:57;100312.88;;;-2.62;61.36
37792;BME280;29527;55.766;37.570;2022-12-15T11:28:38;100304.25;;;-2.69;61.70
37792;BME280;29527;55.766;37.570;2022-12-15T11:31:33;100305.94;;;-2.66;62.31
37792;BME280;29527;55.766;37.570;2022-12-15T11:34:01;100314.75;;;-2.70;61.18
37792;BME280;29527;55.766;37.570;2022-12-15T11:39:35;100296.31;;;-2.64;60.91
37792;BME280;29527;55.766;37.570;2022-12-15T11:45:25;100292.19;;;-2.79;61.43
37792;BME280;29527;55.766;37.570;2022-12-15T11:48:06;100288.84;;;-2.88;61.61
37792;BME280;29527;55.766;37.570;2022-12-15T11:58:57;100287.25;;;-2.96;61.21
37792;BME280;29527;55.766;37.570;2022-12-15T12:02:10;100279.53;;;-3.04;61.95
37792;BME280;29527;55.766;37.570;2022-12-15T12:07:39;100278.78;;;-3.11;61.93
37792;BME280;29527;55.766;37.570;2022-12-15T12:15:31;100258.13;;;-3.29;61.94
37792;BME280;29527;55.766;37.570;2022-12-15T12:18:13;100260.56;;;-3.19;62.07
37792;BME280;29527;55.766;37.570;2022-12-15T12:20:46;100262.56;;;-3.33;61.66
37792;BME280;29527;55.766;37.570;2022-12-15T12:23:19;100254.59;;;-3.27;61.98
37792;BME280;29527;55.766;37.570;2022-12-15T12:26:06;100246.91;;;-3.38;62.27
37792;BME280;29527;55.766;37.570;2022-12-15T12:28:45;100251.13;;;-3.27;61.99
37792;BME280;29527;55.766;37.570;2022-12-15T12:31:34;100232.94;;;-3.37;62.80
37792;BME280;29527;55.766;37.570;2022-12-15T12:34:09;100238.38;;;-3.48;62.80
37792;BME280;29527;55.766;37.570;2022-12-15T12:36:39;100222.00;;;-3.64;62.08
37792;BME280;29527;55.766;37.570;2022-12-15T12:39:16;100242.72;;;-3.50;62.10
37792;BME280;29527;55.766;37.570;2022-12-15T12:44:35;100237.59;;;-3.56;62.90
37792;BME280;29527;55.766;37.570;2022-12-15T12:47:25;100242.00;;;-3.56;62.81
37792;BME280;29527;55.766;37.570;2022-12-15T12:49:57;100233.38;;;-3.63;62.49
37792;BME280;29527;55.766;37.570;2022-12-15T12:52:29;100231.63;;;-3.64;62.59
37792;BME280;29527;55.766;37.570;2022-12-15T12:55:01;100233.13;;;-3.48;61.94
37792;BME280;29527;55.766;37.570;2022-12-15T12:57:49;100223.78;;;-3.66;62.95
37792;BME280;29527;55.766;37.570;2022-12-15T13:02:46;100212.59;;;-3.76;62.83
37792;BME280;29527;55.766;37.570;2022-12-15T13:05:28;100206.53;;;-3.78;63.07
37792;BME280;29527;55.766;37.570;2022-12-15T13:08:16;100197.03;;;-3.83;63.33
37792;BME280;29527;55.766;37.570;2022-12-15T13:10:46;100181.34;;;-3.85;63.17
37792;BME280;29527;55.766;37.570;2022-12-15T13:24:36;100177.94;;;-3.90;63.84
37792;BME280;29527;55.766;37.570;2022-12-15T13:29:35;100164.03;;;-3.92;63.25
37792;BME280;29527;55.766;37.570;2022-12-15T13:32:01;100150.28;;;-4.05;63.85
37792;BME280;29527;55.766;37.570;2022-12-15T13:34:34;100154.56;;;-4.01;64.00
37792;BME280;29527;55.766;37.570;2022-12-15T13:37:01;100145.72;;;-3.94;63.19
37792;BME280;29527;55.766;37.570;2022-12-15T13:46:50;100142.50;;;-4.11;63.69
37792;BME280;29527;55.766;37.570;2022-12-15T13:49:28;100133.91;;;-4.20;63.82
37792;BME280;29527;55.766;37.570;2022-12-15T13:52:01;100132.03;;;-4.08;63.82
37792;BME280;29527;55.766;37.570;2022-12-15T13:54:34;100125.81;;;-4.03;63.03
37792;BME280;29527;55.766;37.570;2022-12-15T13:57:03;100134.66;;;-4.11;63.07
37792;BME280;29527;55.766;37.570;2022-12-15T14:01:58;100121.06;;;-4.35;63.09
37792;BME280;29527;55.766;37.570;2022-12-15T14:04:24;100129.84;;;-4.39;63.89
37792;BME280;29527;55.766;37.570;2022-12-15T14:06:59;100130.63;;;-4.33;63.95
37792;BME280;29527;55.766;37.570;2022-12-15T14:09:31;100128.94;;;-4.37;64.55
37792;BME280;29527;55.766;37.570;2022-12-15T14:12:00;100123.47;;;-4.20;62.99
37792;BME280;29527;55.766;37.570;2022-12-15T14:14:33;100096.69;;;-4.37;63.34
37792;BME280;29527;55.766;37.570;2022-12-15T14:17:17;100117.38;;;-4.20;62.92
37792;BME280;29527;55.766;37.570;2022-12-15T14:19:46;100113.09;;;-4.26;62.90
37792;BME280;29527;55.766;37.570;2022-12-15T14:24:51;100114.09;;;-4.36;63.15
37792;BME280;29527;55.766;37.570;2022-12-15T14:27:25;100105.38;;;-4.35;63.64
37792;BME280;29527;55.766;37.570;2022-12-15T14:32:38;100067.22;;;-4.47;62.55
37792;BME280;29527;55.766;37.570;2022-12-15T14:35:04;100108.69;;;-4.22;62.91
37792;BME280;29527;55.766;37.570;2022-12-15T14:37:30;100105.16;;;-4.20;62.23
37792;BME280;29527;55.766;37.570;2022-12-15T14:39:56;100097.31;;;-4.18;62.12
37792;BME280;29527;55.766;37.570;2022-12-15T14:42:26;100102.47;;;-4.15;62.50
37792;BME280;29527;55.766;37.570;2022-12-15T14:44:53;100100.88;;;-4.24;62.25
37792;BME280;29527;55.766;37.570;2022-12-15T14:47:26;100104.31;;;-4.22;62.13
37792;BME280;29527;55.766;37.570;2022-12-15T14:49:54;100099.09;;;-4.20;61.93